Time;durP1;ratioP1;P1;durP2;ratioP2;P2;SDS_P1;SDS_P2;PMS_P1;PMS_P2;Temp;Humidity;BMP_temperature;BMP_pressure;BME280_temperature;BME280_humidity;BME280_pressure;Samples;Min_cycle;Max_cycle;Signal;HPM_P1;HPM_P2
2022/05/06 00:01:37;;;;;;;12.13;4.80;;;14.90;99.90;;;;;;4968075;28;20073;-41
2022/05/06 00:04:04;;;;;;;8.65;5.10;;;14.90;99.90;;;;;;4968326;28;20031;-42
2022/05/06 00:06:30;;;;;;;8.45;5.15;;;14.80;99.90;;;;;;4952196;28;20034;-41
2022/05/06 00:08:56;;;;;;;7.05;4.95;;;14.80;99.90;;;;;;4967829;28;20031;-41
2022/05/06 00:11:22;;;;;;;14.68;4.75;;;14.80;99.90;;;;;;4967971;28;20033;-42
2022/05/06 00:13:47;;;;;;;8.23;5.03;;;14.70;99.90;;;;;;4952128;29;20114;-43
2022/05/06 00:16:13;;;;;;;8.82;4.68;;;14.60;99.90;;;;;;4968102;28;20455;-41
2022/05/06 00:18:39;;;;;;;10.00;4.30;;;14.60;99.90;;;;;;4967593;28;20024;-41
2022/05/06 00:21:04;;;;;;;9.82;5.00;;;14.50;99.90;;;;;;4953307;28;20031;-40
2022/05/06 00:23:30;;;;;;;5.97;4.45;;;14.60;99.90;;;;;;4968214;28;20525;-44
2022/05/06 00:25:56;;;;;;;12.85;3.97;;;14.60;99.90;;;;;;4969943;28;20042;-42
2022/05/06 00:28:21;;;;;;;5.97;3.88;;;14.50;99.90;;;;;;4972033;28;20038;-41
2022/05/06 00:30:47;;;;;;;6.07;3.70;;;14.40;99.90;;;;;;4972175;28;20035;-40
2022/05/06 00:33:13;;;;;;;4.90;3.65;;;14.30;99.90;;;;;;4972007;28;20035;-42
2022/05/06 00:35:41;;;;;;;6.97;4.22;;;14.10;99.90;;;;;;4972187;28;20419;-41
2022/05/06 00:38:06;;;;;;;7.85;3.75;;;14.10;99.90;;;;;;4956701;28;20039;-43
2022/05/06 00:40:32;;;;;;;4.97;3.80;;;14.00;99.90;;;;;;4972035;28;20086;-42
2022/05/06 00:42:58;;;;;;;6.80;4.00;;;14.00;99.90;;;;;;4955749;29;20451;-43
2022/05/06 00:45:26;;;;;;;5.68;3.38;;;14.00;99.90;;;;;;4971795;28;20038;-41
2022/05/06 00:47:52;;;;;;;6.25;4.25;;;14.10;99.90;;;;;;4955157;29;20033;-40
2022/05/06 00:50:18;;;;;;;4.93;3.75;;;14.10;99.90;;;;;;4955381;28;20403;-45
2022/05/06 00:52:44;;;;;;;10.00;3.63;;;14.20;99.90;;;;;;4971624;28;20031;-40
2022/05/06 00:55:09;;;;;;;4.93;3.88;;;14.20;99.90;;;;;;4971543;28;20030;-40
2022/05/06 00:57:36;;;;;;;8.75;4.07;;;14.10;99.90;;;;;;4971082;28;20069;-43
2022/05/06 01:00:20;;;;;;;4.60;4.13;;;14.00;99.90;;;;;;4939591;28;20415;-43
2022/05/06 01:02:46;;;;;;;7.40;4.45;;;14.00;99.90;;;;;;4971443;28;20681;-41
2022/05/06 01:05:13;;;;;;;5.93;3.75;;;14.00;99.90;;;;;;4955336;28;20035;-41
2022/05/06 01:07:39;;;;;;;7.00;4.18;;;14.00;99.90;;;;;;4954830;29;20031;-41
2022/05/06 01:10:06;;;;;;;6.22;3.75;;;13.90;99.90;;;;;;4971093;28;20545;-41
2022/05/06 01:12:31;;;;;;;8.40;4.30;;;13.90;99.90;;;;;;4973187;28;20117;-44
2022/05/06 01:14:57;;;;;;;8.05;4.30;;;13.90;99.90;;;;;;4975696;28;20067;-43
2022/05/06 01:17:23;;;;;;;9.98;3.83;;;13.80;99.90;;;;;;4974630;28;20118;-42
2022/05/06 01:19:48;;;;;;;5.22;3.72;;;13.70;99.90;;;;;;4974931;28;20046;-41
2022/05/06 01:22:14;;;;;;;7.40;3.85;;;13.70;99.90;;;;;;4959529;29;20431;-41
2022/05/06 01:24:40;;;;;;;13.35;3.72;;;13.70;99.90;;;;;;4975603;28;20264;-41
2022/05/06 01:27:53;;;;;;;6.05;3.63;;;13.60;99.90;;;;;;4954583;28;20568;-41
2022/05/06 01:30:38;;;;;;;8.18;3.85;;;13.40;99.90;;;;;;4969164;28;20059;-40
2022/05/06 01:33:06;;;;;;;5.28;3.20;;;13.40;99.90;;;;;;4970843;28;20118;-42
2022/05/06 01:35:35;;;;;;;4.47;3.22;;;13.40;99.90;;;;;;4970849;28;20042;-43
2022/05/06 01:38:05;;;;;;;5.40;3.90;;;13.40;99.90;;;;;;4969794;28;20020;-43
2022/05/06 01:40:40;;;;;;;6.85;4.43;;;13.40;99.90;;;;;;4970541;28;20082;-43
2022/05/06 01:43:10;;;;;;;7.78;3.90;;;13.40;99.90;;;;;;4956072;28;20613;-40
2022/05/06 01:45:37;;;;;;;5.82;3.80;;;13.40;99.90;;;;;;4954923;28;20032;-43
2022/05/06 01:48:04;;;;;;;7.60;3.70;;;13.20;99.90;;;;;;4970478;28;20118;-42
2022/05/06 01:50:32;;;;;;;8.82;3.97;;;13.20;99.90;;;;;;4970610;28;20027;-45
2022/05/06 01:53:00;;;;;;;11.32;4.45;;;13.20;99.90;;;;;;4970328;28;20035;-44
2022/05/06 01:55:25;;;;;;;4.18;3.75;;;13.20;99.90;;;;;;4970485;28;20024;-42
2022/05/06 01:57:51;;;;;;;6.00;3.97;;;13.20;99.90;;;;;;4970012;28;20027;-44
2022/05/06 02:00:17;;;;;;;6.93;3.63;;;13.10;99.90;;;;;;4970344;28;20399;-42
2022/05/06 02:02:42;;;;;;;5.63;4.30;;;13.00;99.90;;;;;;4969640;28;20085;-41
2022/05/06 02:05:17;;;;;;;5.43;3.75;;;13.00;99.90;;;;;;4970383;28;20390;-42
2022/05/06 02:07:50;;;;;;;8.20;3.33;;;13.00;99.90;;;;;;4969884;28;20483;-43
2022/05/06 02:10:20;;;;;;;4.70;3.80;;;12.90;99.90;;;;;;4970361;28;20031;-42
2022/05/06 02:12:46;;;;;;;9.10;4.03;;;12.80;99.90;;;;;;4970629;28;20029;-42
2022/05/06 02:15:13;;;;;;;10.57;4.32;;;12.80;99.90;;;;;;4970462;28;20122;-41
2022/05/06 02:17:39;;;;;;;8.20;3.70;;;12.80;99.90;;;;;;4970360;28;20082;-42
2022/05/06 02:20:09;;;;;;;9.63;4.32;;;12.80;99.90;;;;;;4970049;28;20039;-43
2022/05/06 02:22:37;;;;;;;8.73;3.83;;;12.80;99.90;;;;;;4970222;28;20086;-41
2022/05/06 02:25:04;;;;;;;7.72;4.40;;;12.80;99.90;;;;;;4954454;28;20031;-41
2022/05/06 02:27:30;;;;;;;6.53;3.75;;;12.90;99.90;;;;;;4953763;28;20042;-44
2022/05/06 02:35:25;;;;;;;7.50;4.00;;;12.90;99.90;;;;;;4955265;29;20489;-41
2022/05/06 02:37:51;;;;;;;5.65;3.85;;;12.80;99.90;;;;;;4969259;28;20050;-41
2022/05/06 02:40:17;;;;;;;5.32;3.67;;;12.70;99.90;;;;;;4955100;28;20027;-41
2022/05/06 02:42:43;;;;;;;6.70;3.58;;;12.60;99.90;;;;;;4969640;28;20125;-41
2022/05/06 02:45:09;;;;;;;5.28;3.63;;;12.60;99.90;;;;;;4953245;29;20035;-41
2022/05/06 02:47:35;;;;;;;5.97;3.80;;;12.60;99.90;;;;;;4969224;28;20078;-41
2022/05/06 02:50:01;;;;;;;4.95;3.65;;;12.60;99.90;;;;;;4968435;28;20079;-42
2022/05/06 02:52:26;;;;;;;5.20;3.97;;;12.50;99.90;;;;;;4969394;28;20027;-43
2022/05/06 02:54:52;;;;;;;7.60;4.07;;;12.40;99.90;;;;;;4969299;28;20019;-41
2022/05/06 02:57:17;;;;;;;10.25;3.58;;;12.40;99.90;;;;;;4953510;29;20082;-41
2022/05/06 02:59:43;;;;;;;5.45;4.00;;;12.40;99.90;;;;;;4969394;28;20118;-42
2022/05/06 03:02:08;;;;;;;9.90;3.92;;;12.50;99.90;;;;;;4954743;28;20027;-42
2022/05/06 03:04:34;;;;;;;10.15;4.22;;;12.40;99.90;;;;;;4969554;28;20376;-41
2022/05/06 03:07:00;;;;;;;5.72;4.05;;;12.30;99.90;;;;;;4969223;28;20023;-42
2022/05/06 03:09:25;;;;;;;6.18;4.13;;;12.30;99.90;;;;;;4955134;28;20042;-42
2022/05/06 03:11:52;;;;;;;8.25;3.78;;;12.20;99.90;;;;;;4969504;28;20037;-42
2022/05/06 03:14:17;;;;;;;5.60;3.92;;;12.20;99.90;;;;;;4969147;28;20036;-42
2022/05/06 03:16:43;;;;;;;6.43;3.95;;;12.20;99.90;;;;;;4969243;28;20023;-40
2022/05/06 03:19:09;;;;;;;4.88;4.30;;;12.20;99.90;;;;;;4990235;23;20526;-42
2022/05/06 03:21:35;;;;;;;9.65;4.60;;;12.20;99.90;;;;;;4992529;28;20073;-42
2022/05/06 03:24:00;;;;;;;10.60;4.20;;;12.20;99.90;;;;;;4994128;28;20050;-41
2022/05/06 03:26:26;;;;;;;6.20;4.22;;;12.10;99.90;;;;;;4994578;28;20034;-43
2022/05/06 03:28:57;;;;;;;5.53;3.80;;;12.00;99.90;;;;;;4992206;28;20045;-39
2022/05/06 03:31:25;;;;;;;6.95;4.03;;;12.00;99.90;;;;;;4974994;28;20050;-42
2022/05/06 03:33:50;;;;;;;7.70;4.18;;;11.80;99.90;;;;;;4989607;28;20023;-44
2022/05/06 03:36:16;;;;;;;4.95;4.45;;;11.80;99.90;;;;;;4990527;28;20033;-43
2022/05/06 03:38:41;;;;;;;6.85;4.20;;;11.70;99.90;;;;;;4989103;28;20491;-43
2022/05/06 03:41:07;;;;;;;9.05;4.40;;;11.60;99.90;;;;;;4973765;28;20502;-39
2022/05/06 03:43:32;;;;;;;9.50;4.93;;;11.60;99.90;;;;;;4988682;28;20027;-43
2022/05/06 03:45:58;;;;;;;5.63;4.30;;;11.60;99.90;;;;;;4988486;28;20077;-43
2022/05/06 03:48:26;;;;;;;7.75;4.85;;;11.50;99.90;;;;;;4971810;28;20169;-44
2022/05/06 03:53:36;;;;;;;9.32;4.30;;;11.50;99.90;;;;;;4975548;28;20084;-40
2022/05/06 03:56:03;;;;;;;8.57;4.50;;;11.50;99.90;;;;;;4990999;28;20118;-43
2022/05/06 03:58:30;;;;;;;7.85;6.40;;;11.40;99.90;;;;;;4975454;28;20073;-41
2022/05/06 04:00:55;;;;;;;12.02;7.90;;;11.40;99.90;;;;;;4990831;28;20030;-42
2022/05/06 04:03:21;;;;;;;7.38;6.32;;;11.50;99.90;;;;;;4989782;28;20033;-43
2022/05/06 04:05:46;;;;;;;6.63;5.85;;;11.50;99.90;;;;;;4987971;28;20514;-43
2022/05/06 04:08:12;;;;;;;10.25;5.28;;;11.50;99.90;;;;;;4987552;28;20022;-46
2022/05/06 04:10:37;;;;;;;12.25;5.53;;;11.50;99.90;;;;;;4988130;28;20227;-43
2022/05/06 04:13:03;;;;;;;4.97;4.55;;;11.60;99.90;;;;;;4987917;28;20027;-42
2022/05/06 04:15:32;;;;;;;7.38;4.38;;;11.60;99.90;;;;;;4971993;28;20027;-39
2022/05/06 04:17:58;;;;;;;6.93;4.20;;;11.50;99.90;;;;;;4987729;28;20030;-41
2022/05/06 04:25:52;;;;;;;5.63;3.97;;;11.60;99.90;;;;;;4972903;28;20061;-42
2022/05/06 04:28:18;;;;;;;5.03;4.03;;;11.70;99.90;;;;;;4987426;28;20031;-42
2022/05/06 04:30:43;;;;;;;6.28;4.03;;;11.70;99.90;;;;;;4987386;28;20035;-42
2022/05/06 04:33:09;;;;;;;6.88;4.93;;;11.70;99.90;;;;;;4987677;28;20527;-44
2022/05/06 04:35:35;;;;;;;6.53;3.90;;;11.80;99.90;;;;;;4987369;28;20019;-40
2022/05/06 04:38:00;;;;;;;8.27;4.00;;;11.80;99.90;;;;;;4987210;28;20375;-42
2022/05/06 04:40:26;;;;;;;8.10;4.75;;;11.70;99.90;;;;;;4987480;28;20031;-43
2022/05/06 04:42:52;;;;;;;6.20;4.13;;;11.70;99.90;;;;;;4987454;28;20027;-44
2022/05/06 04:45:17;;;;;;;5.00;4.40;;;11.80;99.90;;;;;;4987502;28;20027;-41
2022/05/06 04:47:43;;;;;;;11.70;4.18;;;11.80;99.90;;;;;;4987230;28;20034;-41
2022/05/06 04:50:09;;;;;;;6.47;4.32;;;11.80;99.90;;;;;;4987249;28;20406;-42
2022/05/06 04:52:34;;;;;;;10.88;4.53;;;11.90;99.90;;;;;;4988420;28;20325;-42
2022/05/06 04:55:00;;;;;;;11.15;4.32;;;11.90;99.90;;;;;;4987857;28;20135;-45
2022/05/06 04:57:26;;;;;;;6.45;4.22;;;11.90;99.90;;;;;;4986881;28;20066;-45
2022/05/06 04:59:52;;;;;;;9.95;5.38;;;12.00;99.90;;;;;;4987339;28;20046;-44
2022/05/06 05:02:18;;;;;;;7.15;4.03;;;12.00;99.90;;;;;;4987236;28;20473;-42
2022/05/06 05:04:44;;;;;;;5.72;4.63;;;12.10;99.90;;;;;;4971013;28;20031;-36
2022/05/06 05:07:11;;;;;;;7.85;4.53;;;12.20;99.90;;;;;;4986946;28;20483;-42
2022/05/06 05:09:36;;;;;;;4.93;3.70;;;12.20;99.90;;;;;;4987261;28;20023;-43
2022/05/06 05:12:03;;;;;;;4.40;4.00;;;12.30;99.90;;;;;;4971464;28;20034;-42
2022/05/06 05:14:29;;;;;;;5.85;4.60;;;12.30;99.90;;;;;;4990479;28;20076;-45
2022/05/06 05:16:55;;;;;;;6.75;4.25;;;12.40;99.90;;;;;;4990264;28;20503;-45
2022/05/06 05:19:20;;;;;;;8.80;4.30;;;12.30;99.90;;;;;;4990534;28;20403;-42
2022/05/06 05:21:47;;;;;;;4.43;3.95;;;12.30;99.90;;;;;;4990628;28;20031;-43
2022/05/06 05:24:13;;;;;;;5.55;4.03;;;12.30;99.90;;;;;;4990684;28;20042;-41
2022/05/06 05:26:39;;;;;;;5.72;4.53;;;12.30;99.90;;;;;;4990853;28;20027;-38
2022/05/06 05:29:05;;;;;;;5.85;4.38;;;12.40;99.90;;;;;;4975462;28;20101;-42
2022/05/06 05:31:31;;;;;;;9.00;4.00;;;12.40;99.90;;;;;;4974058;28;20023;-43
2022/05/06 05:33:56;;;;;;;4.60;4.20;;;12.50;99.90;;;;;;4975447;28;20022;-44
2022/05/06 05:36:22;;;;;;;5.07;4.25;;;12.60;99.90;;;;;;4990134;28;20073;-44
2022/05/06 05:38:47;;;;;;;7.05;4.55;;;12.70;99.90;;;;;;4973708;28;20027;-43
2022/05/06 05:41:13;;;;;;;7.45;4.43;;;12.80;99.90;;;;;;4975141;28;20034;-39
2022/05/06 05:49:07;;;;;;;5.40;3.33;;;13.20;99.90;;;;;;4974995;28;20648;-43
2022/05/06 05:51:33;;;;;;;4.65;3.25;;;13.30;99.90;;;;;;4989855;28;20130;-44
2022/05/06 05:53:59;;;;;;;5.60;3.47;;;13.30;99.90;;;;;;4990200;28;20027;-46
2022/05/06 05:56:25;;;;;;;6.13;3.40;;;13.20;99.90;;;;;;4989815;28;20033;-44
2022/05/06 05:58:51;;;;;;;8.18;3.47;;;13.40;99.90;;;;;;4989518;28;20550;-42
2022/05/06 06:01:20;;;;;;;3.72;3.22;;;13.50;99.90;;;;;;4989442;28;20039;-38
2022/05/06 06:03:46;;;;;;;7.97;3.65;;;13.40;99.90;;;;;;4989818;28;20023;-43
2022/05/06 06:06:12;;;;;;;8.15;3.75;;;13.30;99.90;;;;;;4975115;28;20030;-44
2022/05/06 06:08:37;;;;;;;5.63;3.10;;;13.40;99.90;;;;;;4974545;28;20102;-42
2022/05/06 06:11:04;;;;;;;4.93;3.08;;;13.50;99.90;;;;;;4985838;28;20223;-39
2022/05/06 06:13:32;;;;;;;6.00;3.15;;;13.60;99.90;;;;;;4989276;28;20408;-42
2022/05/06 06:15:58;;;;;;;4.15;2.80;;;13.70;99.90;;;;;;4973052;28;20027;-42
2022/05/06 06:18:26;;;;;;;4.28;3.30;;;13.80;99.90;;;;;;4989384;28;20407;-45
2022/05/06 06:20:56;;;;;;;9.32;3.05;;;14.00;99.90;;;;;;4974117;28;20089;-46
2022/05/06 06:23:21;;;;;;;7.00;3.10;;;14.00;99.70;;;;;;4989051;28;20494;-44
2022/05/06 06:25:47;;;;;;;6.40;3.47;;;14.00;99.50;;;;;;4987999;28;20058;-45
2022/05/06 06:28:12;;;;;;;8.65;3.33;;;13.90;99.80;;;;;;4972108;28;20027;-46
2022/05/06 06:30:38;;;;;;;5.03;3.00;;;14.00;99.70;;;;;;4974163;28;20107;-43
2022/05/06 06:33:04;;;;;;;4.68;2.78;;;14.00;99.50;;;;;;4989283;28;20065;-43
2022/05/06 06:35:29;;;;;;;13.45;2.90;;;14.00;99.10;;;;;;4988437;28;20038;-43
2022/05/06 06:37:55;;;;;;;5.95;3.20;;;14.00;99.20;;;;;;4988287;28;20174;-42
2022/05/06 06:40:21;;;;;;;4.80;2.50;;;14.10;99.30;;;;;;4988357;28;20045;-46
2022/05/06 06:42:47;;;;;;;5.65;3.17;;;14.30;98.80;;;;;;4989148;28;20549;-42
2022/05/06 06:45:12;;;;;;;5.75;2.92;;;14.40;98.70;;;;;;4989481;28;20038;-42
2022/05/06 06:47:39;;;;;;;3.15;2.90;;;14.40;98.30;;;;;;4988797;28;20507;-39
2022/05/06 06:50:05;;;;;;;6.70;3.03;;;14.50;98.60;;;;;;4988885;28;20062;-41
2022/05/06 06:52:31;;;;;;;9.65;4.07;;;14.70;99.00;;;;;;4989133;28;20541;-46
2022/05/06 06:54:57;;;;;;;10.27;3.55;;;14.90;98.20;;;;;;4981211;28;20027;-48
2022/05/06 06:57:23;;;;;;;7.05;3.22;;;15.10;97.70;;;;;;4968899;28;20034;-43
2022/05/06 06:59:48;;;;;;;7.07;2.80;;;15.20;97.40;;;;;;4982942;28;20027;-41
2022/05/06 07:02:14;;;;;;;8.85;3.08;;;15.30;97.60;;;;;;4988321;28;20023;-41
2022/05/06 07:04:40;;;;;;;10.45;3.53;;;15.30;97.20;;;;;;4972404;28;20073;-42
2022/05/06 07:12:34;;;;;;;8.15;3.25;;;15.40;97.10;;;;;;4974020;28;20221;-42
2022/05/06 07:15:01;;;;;;;4.65;2.70;;;15.40;97.20;;;;;;4973582;28;20027;-40
2022/05/06 07:17:26;;;;;;;10.02;2.88;;;15.60;96.70;;;;;;4989958;28;20069;-39
2022/05/06 07:19:52;;;;;;;6.88;3.22;;;15.90;96.80;;;;;;4988972;28;20046;-41
2022/05/06 07:22:18;;;;;;;3.65;2.38;;;16.10;96.90;;;;;;4988362;28;20509;-39
2022/05/06 07:24:44;;;;;;;3.80;2.42;;;16.20;96.70;;;;;;4988221;28;20446;-40
2022/05/06 07:27:09;;;;;;;5.95;2.20;;;16.50;95.80;;;;;;4971594;28;20023;-43
2022/05/06 07:29:35;;;;;;;3.83;2.50;;;16.50;95.50;;;;;;4973194;28;20114;-41
2022/05/06 07:32:00;;;;;;;4.97;2.25;;;16.60;95.50;;;;;;4988052;28;20408;-37
2022/05/06 07:34:26;;;;;;;2.83;2.28;;;16.70;94.90;;;;;;4988189;28;20030;-43
2022/05/06 07:36:52;;;;;;;4.40;2.25;;;16.70;94.90;;;;;;4987504;28;20058;-38
2022/05/06 07:39:18;;;;;;;5.28;2.28;;;16.70;95.00;;;;;;4973056;28;20521;-37
2022/05/06 07:41:43;;;;;;;4.28;1.95;;;16.80;94.80;;;;;;4987984;28;20019;-41
2022/05/06 07:44:09;;;;;;;2.67;2.00;;;16.90;94.40;;;;;;4988253;28;20399;-41
2022/05/06 07:46:35;;;;;;;8.65;2.65;;;17.10;93.50;;;;;;4988144;28;20031;-36
2022/05/06 07:49:02;;;;;;;3.88;1.90;;;17.10;94.00;;;;;;4987777;28;20030;-42
2022/05/06 07:51:28;;;;;;;3.78;2.65;;;17.40;92.80;;;;;;4971639;28;20410;-46
2022/05/06 07:53:55;;;;;;;5.45;1.95;;;17.50;92.20;;;;;;4971770;28;20035;-45
2022/05/06 07:56:22;;;;;;;4.50;1.80;;;17.80;91.70;;;;;;4987920;28;20115;-44
2022/05/06 07:58:49;;;;;;;3.33;1.88;;;18.40;91.90;;;;;;4987582;28;20019;-39
2022/05/06 08:01:14;;;;;;;6.85;2.03;;;19.30;89.60;;;;;;4987705;28;20481;-45
2022/05/06 08:06:24;;;;;;;3.65;1.83;;;20.90;83.90;;;;;;4973206;28;20041;-44
2022/05/06 08:08:50;;;;;;;4.28;1.77;;;21.10;82.40;;;;;;4987677;28;20027;-42
2022/05/06 08:11:17;;;;;;;3.00;1.75;;;21.10;81.00;;;;;;4987615;28;20023;-42
2022/05/06 08:13:44;;;;;;;2.95;1.50;;;21.20;80.30;;;;;;4987745;28;20023;-36
2022/05/06 08:16:10;;;;;;;3.88;2.10;;;21.50;79.70;;;;;;4987399;28;20459;-42
2022/05/06 08:18:36;;;;;;;4.60;1.60;;;22.10;77.90;;;;;;4987568;28;20121;-46
2022/05/06 08:21:03;;;;;;;3.63;1.77;;;22.40;77.10;;;;;;4972389;28;20038;-45
2022/05/06 08:23:28;;;;;;;5.82;1.65;;;22.60;73.90;;;;;;4986521;28;20114;-43
2022/05/06 08:25:54;;;;;;;4.07;1.58;;;22.80;73.20;;;;;;4987497;28;20122;-48
2022/05/06 08:28:21;;;;;;;1.60;1.48;;;23.40;70.70;;;;;;4987402;28;20027;-45
2022/05/06 08:30:48;;;;;;;4.32;1.38;;;23.30;72.30;;;;;;4987443;28;20443;-46
2022/05/06 08:33:14;;;;;;;4.85;1.08;;;23.60;72.00;;;;;;4971919;28;20030;-42
2022/05/06 08:35:40;;;;;;;3.53;1.20;;;23.80;72.20;;;;;;4972259;28;20015;-43
2022/05/06 08:38:08;;;;;;;3.90;1.40;;;23.80;67.30;;;;;;4986894;28;20030;-46
2022/05/06 08:40:35;;;;;;;1.58;1.23;;;23.10;69.80;;;;;;4987267;28;20046;-53
2022/05/06 08:43:02;;;;;;;6.35;1.75;;;22.60;70.60;;;;;;4976844;28;20118;-49
2022/05/06 08:51:00;;;;;;;5.22;1.95;;;21.00;70.60;;;;;;4966986;28;20030;-51
2022/05/06 08:53:29;;;;;;;1.77;1.40;;;20.60;70.10;;;;;;4971487;28;20495;-50
2022/05/06 08:55:56;;;;;;;4.15;1.98;;;20.50;70.50;;;;;;4985848;28;20444;-45
2022/05/06 08:58:23;;;;;;;2.25;1.30;;;20.40;71.30;;;;;;4974222;28;20030;-45
2022/05/06 09:00:49;;;;;;;2.38;1.27;;;20.40;72.80;;;;;;4990758;28;20113;-48
2022/05/06 09:03:16;;;;;;;6.13;1.58;;;20.50;70.20;;;;;;4990527;28;20097;-50
2022/05/06 09:05:59;;;;;;;2.05;1.50;;;20.10;71.10;;;;;;4990698;28;20031;-48
2022/05/06 09:08:36;;;;;;;3.45;1.25;;;20.10;68.30;;;;;;4990371;28;20030;-44
2022/05/06 09:11:08;;;;;;;3.25;1.85;;;19.90;70.70;;;;;;4990747;28;20574;-42
2022/05/06 09:13:38;;;;;;;1.40;1.30;;;20.00;73.20;;;;;;4990793;28;20061;-43
2022/05/06 09:16:42;;;;;;;4.20;1.55;;;20.00;72.50;;;;;;4990736;28;20018;-45
2022/05/06 09:19:13;;;;;;;3.30;1.33;;;20.00;69.80;;;;;;4973429;28;20050;-48
2022/05/06 09:21:41;;;;;;;1.20;1.10;;;20.00;69.70;;;;;;4890592;23;20053;-43
2022/05/06 09:24:19;;;;;;;1.58;1.23;;;20.00;69.00;;;;;;4858016;29;20079;-45
2022/05/06 09:27:15;;;;;;;3.08;1.17;;;19.90;68.80;;;;;;4873210;29;20073;-44
2022/05/06 09:29:49;;;;;;;1.27;1.17;;;19.70;68.50;;;;;;4868427;29;20033;-43
2022/05/06 09:32:25;;;;;;;1.83;1.40;;;19.90;69.20;;;;;;4857985;29;20037;-45
2022/05/06 09:35:07;;;;;;;1.60;1.40;;;19.90;70.00;;;;;;4858934;29;20022;-44
2022/05/06 09:37:39;;;;;;;4.13;1.50;;;19.90;69.50;;;;;;4857676;29;20056;-43
2022/05/06 09:40:18;;;;;;;4.28;1.42;;;20.00;68.70;;;;;;4859078;29;20514;-46
2022/05/06 09:42:57;;;;;;;4.53;1.55;;;20.00;71.10;;;;;;4868078;29;20044;-46
2022/05/06 09:45:39;;;;;;;3.50;1.58;;;20.20;69.40;;;;;;4856362;29;20030;-45
2022/05/06 09:48:06;;;;;;;2.90;1.60;;;20.10;68.60;;;;;;4872897;29;20025;-44
2022/05/06 09:50:36;;;;;;;1.70;1.30;;;20.10;69.70;;;;;;4873020;29;20030;-44
2022/05/06 09:53:04;;;;;;;8.57;2.28;;;20.20;70.30;;;;;;4859165;29;20037;-43
2022/05/06 09:55:31;;;;;;;1.50;1.30;;;20.20;69.10;;;;;;4857747;29;20034;-46
2022/05/06 09:57:59;;;;;;;2.75;1.42;;;20.10;69.40;;;;;;4857519;29;20433;-46
2022/05/06 10:00:28;;;;;;;7.50;1.30;;;20.10;71.50;;;;;;4857720;29;20026;-42
2022/05/06 10:02:56;;;;;;;2.92;1.75;;;20.20;69.60;;;;;;4857724;29;20133;-45
2022/05/06 10:05:26;;;;;;;2.35;1.58;;;20.00;67.10;;;;;;4859056;29;20026;-46
2022/05/06 10:07:57;;;;;;;9.50;1.52;;;20.00;68.10;;;;;;4873176;29;20040;-45
2022/05/06 10:10:28;;;;;;;8.95;1.65;;;20.00;70.40;;;;;;4872577;29;20038;-48
2022/05/06 10:13:04;;;;;;;6.03;1.60;;;20.00;69.60;;;;;;4857490;29;20374;-49
2022/05/06 10:15:30;;;;;;;6.30;1.27;;;20.10;68.70;;;;;;4847829;29;20025;-46
2022/05/06 10:18:07;;;;;;;2.85;1.75;;;20.30;67.40;;;;;;4856942;29;20030;-48
2022/05/06 10:20:36;;;;;;;5.15;1.33;;;20.20;67.80;;;;;;4872702;29;20045;-49
2022/05/06 10:23:06;;;;;;;6.75;1.73;;;20.10;68.60;;;;;;4872844;29;20116;-46
2022/05/06 10:25:41;;;;;;;1.77;1.30;;;20.10;67.50;;;;;;4872834;29;20402;-51
2022/05/06 10:34:23;;;;;;;2.15;1.30;;;20.10;68.30;;;;;;4906475;28;20083;-44
2022/05/06 10:36:53;;;;;;;3.03;1.38;;;20.00;67.80;;;;;;4856868;29;20410;-44
2022/05/06 10:39:32;;;;;;;4.70;2.40;;;20.00;69.30;;;;;;4872503;29;20505;-44
2022/05/06 10:42:01;;;;;;;5.78;1.58;;;20.10;68.70;;;;;;4856164;29;20556;-45
2022/05/06 10:44:49;;;;;;;6.57;1.35;;;20.10;69.30;;;;;;4857018;29;20557;-47
2022/05/06 10:47:15;;;;;;;5.43;1.50;;;20.20;68.90;;;;;;4871855;29;20068;-44
2022/05/06 10:49:43;;;;;;;3.28;1.35;;;20.30;67.30;;;;;;4856614;29;20136;-44
2022/05/06 10:52:18;;;;;;;2.90;1.83;;;20.30;67.20;;;;;;4856329;29;20029;-45
2022/05/06 10:54:47;;;;;;;1.83;1.55;;;20.20;66.00;;;;;;4856557;29;20026;-45
2022/05/06 10:57:13;;;;;;;4.30;1.98;;;20.20;68.00;;;;;;4857207;29;20382;-49
2022/05/06 10:59:56;;;;;;;2.15;1.17;;;20.30;67.70;;;;;;4871362;29;20025;-47
2022/05/06 11:02:33;;;;;;;3.75;1.45;;;20.30;68.20;;;;;;4856208;29;20120;-47
2022/05/06 11:04:59;;;;;;;5.88;1.38;;;20.40;67.30;;;;;;4856216;29;20022;-48
2022/05/06 11:07:26;;;;;;;2.50;1.42;;;20.50;67.20;;;;;;4857150;29;20032;-46
2022/05/06 11:09:51;;;;;;;4.63;1.65;;;20.60;67.70;;;;;;4855457;29;20080;-45
2022/05/06 11:12:30;;;;;;;4.40;1.58;;;20.40;66.20;;;;;;4870007;29;20513;-48
2022/05/06 11:14:57;;;;;;;3.28;1.48;;;20.30;67.40;;;;;;4871656;29;20029;-46
2022/05/06 11:17:24;;;;;;;1.77;1.30;;;20.30;68.00;;;;;;4871292;29;20057;-44
2022/05/06 11:19:50;;;;;;;2.28;1.92;;;20.30;68.30;;;;;;4871440;29;20405;-46
2022/05/06 11:22:16;;;;;;;3.67;1.48;;;20.20;67.10;;;;;;4856175;29;20045;-44
2022/05/06 11:24:43;;;;;;;3.17;1.90;;;20.20;67.30;;;;;;4871548;29;20030;-46
2022/05/06 11:27:16;;;;;;;1.33;1.20;;;20.20;69.60;;;;;;4856644;29;20033;-44
2022/05/06 11:29:50;;;;;;;1.40;1.30;;;20.30;68.70;;;;;;4871065;29;20065;-44
2022/05/06 11:32:16;;;;;;;1.90;1.73;;;20.40;67.90;;;;;;4854658;29;20100;-46
2022/05/06 11:35:02;;;;;;;5.93;1.88;;;20.40;68.30;;;;;;4852904;29;20026;-45
2022/05/06 11:37:29;;;;;;;22.30;14.43;;;20.40;68.80;;;;;;4837201;29;20029;-46
2022/05/06 11:42:40;;;;;;;2.15;1.40;;;19.90;67.40;;;;;;4857197;29;20060;-45
2022/05/06 11:47:51;;;;;;;;;;;20.00;67.90;;;;;;4838694;29;20052;-45
2022/05/06 11:50:18;;;;;;;4.22;2.00;;;20.10;67.20;;;;;;4846991;29;19912;-47
2022/05/06 11:52:45;;;;;;;6.78;1.45;;;20.20;67.60;;;;;;4856814;29;20026;-46
2022/05/06 11:55:12;;;;;;;2.22;1.40;;;20.20;68.90;;;;;;4860965;29;20208;-49
2022/05/06 11:57:39;;;;;;;6.18;1.67;;;20.40;70.00;;;;;;4870392;29;20529;-45
2022/05/06 12:00:06;;;;;;;6.72;1.40;;;20.40;69.80;;;;;;4855231;29;20029;-46
2022/05/06 12:02:32;;;;;;;1.30;1.20;;;20.40;69.50;;;;;;4870382;29;20121;-48
2022/05/06 12:04:58;;;;;;;6.85;1.20;;;20.30;70.30;;;;;;4856501;29;20490;-46
2022/05/06 12:07:46;;;;;;;4.45;1.30;;;20.20;70.40;;;;;;4869239;29;20037;-47
2022/05/06 12:10:26;;;;;;;4.20;1.45;;;20.40;70.60;;;;;;4854180;29;20303;-53
2022/05/06 12:12:54;;;;;;;3.65;1.60;;;20.60;68.70;;;;;;4845575;29;20030;-47
2022/05/06 12:15:27;;;;;;;6.82;1.40;;;20.70;70.20;;;;;;4855236;29;20153;-49
2022/05/06 12:18:01;;;;;;;3.78;1.50;;;20.70;69.50;;;;;;4854913;29;20026;-45
2022/05/06 12:20:30;;;;;;;3.95;1.38;;;20.40;69.40;;;;;;4856656;29;20042;-46
2022/05/06 12:22:59;;;;;;;4.95;1.50;;;20.10;70.10;;;;;;4858356;29;20057;-50
2022/05/06 12:25:25;;;;;;;4.53;1.55;;;20.10;71.10;;;;;;4873919;29;20037;-48
2022/05/06 12:28:09;;;;;;;1.98;1.30;;;20.10;70.40;;;;;;4865202;29;20395;-49
2022/05/06 12:30:37;;;;;;;3.25;1.52;;;20.30;69.50;;;;;;4863539;29;20054;-50
2022/05/06 12:33:02;;;;;;;1.67;1.20;;;20.30;69.70;;;;;;4873685;29;20022;-44
2022/05/06 12:35:28;;;;;;;1.85;1.27;;;20.40;69.50;;;;;;4873795;29;20029;-46
2022/05/06 12:37:55;;;;;;;3.55;1.33;;;20.40;69.80;;;;;;4869485;29;20018;-46
2022/05/06 12:40:27;;;;;;;6.22;2.13;;;20.50;69.90;;;;;;4853855;29;20038;-45
2022/05/06 12:43:07;;;;;;;7.10;1.42;;;20.60;69.60;;;;;;4855538;29;20026;-43
2022/05/06 12:45:33;;;;;;;2.50;2.30;;;20.70;71.10;;;;;;4840301;29;20569;-45
2022/05/06 12:50:42;;;;;;;1.25;1.10;;;20.70;70.60;;;;;;4845830;29;20041;-46
2022/05/06 12:53:08;;;;;;;3.85;1.60;;;20.50;70.20;;;;;;4844519;29;20026;-42
2022/05/06 12:55:34;;;;;;;4.47;1.30;;;20.50;72.10;;;;;;4860408;29;20029;-41
2022/05/06 12:57:59;;;;;;;1.35;1.25;;;20.50;70.30;;;;;;4860839;29;20032;-43
2022/05/06 13:00:26;;;;;;;3.63;1.33;;;20.40;70.10;;;;;;4876459;29;20521;-43
2022/05/06 13:02:52;;;;;;;3.40;1.40;;;20.40;69.70;;;;;;4860246;29;20026;-45
2022/05/06 13:05:18;;;;;;;1.40;1.20;;;20.40;70.20;;;;;;4862113;29;20126;-46
2022/05/06 13:07:44;;;;;;;1.30;1.20;;;20.40;71.00;;;;;;4875391;29;20054;-43
2022/05/06 13:10:10;;;;;;;2.30;1.17;;;20.40;70.50;;;;;;4860684;29;20041;-42
2022/05/06 13:12:35;;;;;;;2.38;1.48;;;20.20;70.00;;;;;;4858797;29;20101;-41
2022/05/06 13:15:01;;;;;;;2.85;1.25;;;20.30;70.00;;;;;;4859004;29;20030;-42
2022/05/06 13:17:26;;;;;;;4.18;1.30;;;20.30;71.10;;;;;;4857293;29;20177;-41
2022/05/06 13:19:52;;;;;;;1.33;1.23;;;20.10;70.60;;;;;;4858266;29;20022;-43
2022/05/06 13:22:18;;;;;;;2.17;1.30;;;20.10;70.60;;;;;;4859924;29;20478;-44
2022/05/06 13:24:43;;;;;;;5.00;1.05;;;20.20;72.10;;;;;;4859129;29;20115;-46
2022/05/06 13:27:09;;;;;;;5.43;1.50;;;20.30;72.30;;;;;;4857168;29;20030;-44
2022/05/06 13:29:34;;;;;;;2.88;1.10;;;20.50;71.60;;;;;;4858546;29;20112;-41
2022/05/06 13:32:00;;;;;;;1.58;1.10;;;20.50;69.90;;;;;;4857266;29;20033;-42
2022/05/06 13:34:25;;;;;;;3.20;1.52;;;20.60;69.20;;;;;;4858342;29;20022;-46
2022/05/06 13:36:51;;;;;;;6.00;1.90;;;20.60;69.10;;;;;;4857179;29;20053;-47